sensor_id;sensor_type;location;lat;lon;timestamp;P1;durP1;ratioP1;P2;durP2;ratioP2
37201;SDS011;37799;52.390;6.136;2023-04-06T00:00:00;5.30;;;1.10;;
37201;SDS011;37799;52.390;6.136;2023-04-06T00:02:26;3.78;;;1.00;;
37201;SDS011;37799;52.390;6.136;2023-04-06T00:04:54;7.85;;;1.27;;
37201;SDS011;37799;52.390;6.136;2023-04-06T00:07:21;6.43;;;1.40;;
37201;SDS011;37799;52.390;6.136;2023-04-06T00:09:49;3.70;;;0.95;;
37201;SDS011;37799;52.390;6.136;2023-04-06T00:12:15;6.15;;;1.00;;
37201;SDS011;37799;52.390;6.136;2023-04-06T00:14:50;4.43;;;1.27;;
37201;SDS011;37799;52.390;6.136;2023-04-06T00:17:17;6.00;;;1.02;;
37201;SDS011;37799;52.390;6.136;2023-04-06T00:19:47;5.20;;;1.20;;
37201;SDS011;37799;52.390;6.136;2023-04-06T00:22:12;5.43;;;1.42;;
37201;SDS011;37799;52.390;6.136;2023-04-06T00:24:39;3.60;;;0.90;;
37201;SDS011;37799;52.390;6.136;2023-04-06T00:27:05;4.40;;;1.02;;
37201;SDS011;37799;52.390;6.136;2023-04-06T00:29:34;5.57;;;1.13;;
37201;SDS011;37799;52.390;6.136;2023-04-06T00:32:02;6.82;;;1.33;;
37201;SDS011;37799;52.390;6.136;2023-04-06T00:34:28;4.63;;;1.27;;
37201;SDS011;37799;52.390;6.136;2023-04-06T00:36:53;5.03;;;1.60;;
37201;SDS011;37799;52.390;6.136;2023-04-06T00:39:19;5.13;;;0.93;;
37201;SDS011;37799;52.390;6.136;2023-04-06T00:41:46;5.80;;;1.27;;
37201;SDS011;37799;52.390;6.136;2023-04-06T00:44:17;5.10;;;0.98;;
37201;SDS011;37799;52.390;6.136;2023-04-06T00:46:45;7.43;;;1.15;;
37201;SDS011;37799;52.390;6.136;2023-04-06T00:49:17;4.80;;;1.10;;
37201;SDS011;37799;52.390;6.136;2023-04-06T00:51:55;6.40;;;1.40;;
37201;SDS011;37799;52.390;6.136;2023-04-06T00:54:25;8.20;;;1.70;;
37201;SDS011;37799;52.390;6.136;2023-04-06T00:57:03;4.25;;;1.17;;
37201;SDS011;37799;52.390;6.136;2023-04-06T01:00:00;4.60;;;0.98;;
37201;SDS011;37799;52.390;6.136;2023-04-06T01:02:30;5.32;;;1.30;;
37201;SDS011;37799;52.390;6.136;2023-04-06T01:04:59;9.95;;;2.15;;
37201;SDS011;37799;52.390;6.136;2023-04-06T01:07:24;11.02;;;2.13;;
37201;SDS011;37799;52.390;6.136;2023-04-06T01:10:03;5.40;;;1.20;;
37201;SDS011;37799;52.390;6.136;2023-04-06T01:12:30;6.45;;;1.55;;
37201;SDS011;37799;52.390;6.136;2023-04-06T01:14:58;6.40;;;1.60;;
37201;SDS011;37799;52.390;6.136;2023-04-06T01:17:25;6.10;;;1.55;;
37201;SDS011;37799;52.390;6.136;2023-04-06T01:19:53;7.07;;;1.55;;
37201;SDS011;37799;52.390;6.136;2023-04-06T01:22:21;5.20;;;1.30;;
37201;SDS011;37799;52.390;6.136;2023-04-06T01:24:54;5.13;;;1.13;;
37201;SDS011;37799;52.390;6.136;2023-04-06T01:27:34;6.45;;;1.40;;
37201;SDS011;37799;52.390;6.136;2023-04-06T01:30:04;9.20;;;1.55;;
37201;SDS011;37799;52.390;6.136;2023-04-06T01:32:32;6.10;;;1.63;;
37201;SDS011;37799;52.390;6.136;2023-04-06T01:34:57;6.43;;;1.45;;
37201;SDS011;37799;52.390;6.136;2023-04-06T01:37:23;6.82;;;1.52;;
37201;SDS011;37799;52.390;6.136;2023-04-06T01:39:57;4.43;;;1.10;;
37201;SDS011;37799;52.390;6.136;2023-04-06T01:42:27;7.40;;;1.57;;
37201;SDS011;37799;52.390;6.136;2023-04-06T01:44:57;4.70;;;1.38;;
37201;SDS011;37799;52.390;6.136;2023-04-06T01:47:24;6.97;;;1.40;;
37201;SDS011;37799;52.390;6.136;2023-04-06T01:49:50;5.60;;;1.65;;
37201;SDS011;37799;52.390;6.136;2023-04-06T01:52:16;6.57;;;1.20;;
37201;SDS011;37799;52.390;6.136;2023-04-06T01:54:43;5.00;;;1.20;;
37201;SDS011;37799;52.390;6.136;2023-04-06T01:57:31;5.30;;;1.35;;
37201;SDS011;37799;52.390;6.136;2023-04-06T02:00:17;5.40;;;1.50;;
37201;SDS011;37799;52.390;6.136;2023-04-06T02:02:43;6.38;;;1.52;;
37201;SDS011;37799;52.390;6.136;2023-04-06T02:05:12;8.95;;;1.85;;
37201;SDS011;37799;52.390;6.136;2023-04-06T02:07:50;9.27;;;1.63;;
37201;SDS011;37799;52.390;6.136;2023-04-06T02:13:17;8.30;;;1.83;;
37201;SDS011;37799;52.390;6.136;2023-04-06T02:16:04;7.03;;;1.70;;
37201;SDS011;37799;52.390;6.136;2023-04-06T02:18:31;8.75;;;2.10;;
37201;SDS011;37799;52.390;6.136;2023-04-06T02:21:02;7.30;;;1.73;;
37201;SDS011;37799;52.390;6.136;2023-04-06T02:23:30;8.00;;;2.17;;
37201;SDS011;37799;52.390;6.136;2023-04-06T02:26:01;8.55;;;1.63;;
37201;SDS011;37799;52.390;6.136;2023-04-06T02:28:47;6.28;;;1.50;;
37201;SDS011;37799;52.390;6.136;2023-04-06T02:31:35;8.88;;;1.80;;
37201;SDS011;37799;52.390;6.136;2023-04-06T02:34:02;7.88;;;1.70;;
37201;SDS011;37799;52.390;6.136;2023-04-06T02:36:38;6.35;;;1.45;;
37201;SDS011;37799;52.390;6.136;2023-04-06T02:39:14;9.07;;;1.30;;
37201;SDS011;37799;52.390;6.136;2023-04-06T02:41:51;7.03;;;1.58;;
37201;SDS011;37799;52.390;6.136;2023-04-06T02:44:49;8.00;;;1.98;;
37201;SDS011;37799;52.390;6.136;2023-04-06T02:47:38;8.75;;;1.75;;
37201;SDS011;37799;52.390;6.136;2023-04-06T02:50:26;6.50;;;2.13;;
37201;SDS011;37799;52.390;6.136;2023-04-06T02:52:52;6.75;;;1.90;;
37201;SDS011;37799;52.390;6.136;2023-04-06T02:55:24;6.95;;;1.73;;
37201;SDS011;37799;52.390;6.136;2023-04-06T02:58:00;6.40;;;1.40;;
37201;SDS011;37799;52.390;6.136;2023-04-06T03:00:25;6.95;;;1.80;;
37201;SDS011;37799;52.390;6.136;2023-04-06T03:02:52;7.57;;;1.92;;
37201;SDS011;37799;52.390;6.136;2023-04-06T03:05:22;12.57;;;1.88;;
37201;SDS011;37799;52.390;6.136;2023-04-06T03:07:56;8.10;;;1.70;;
37201;SDS011;37799;52.390;6.136;2023-04-06T03:10:21;8.23;;;1.90;;
37201;SDS011;37799;52.390;6.136;2023-04-06T03:12:50;7.70;;;2.30;;
37201;SDS011;37799;52.390;6.136;2023-04-06T03:15:18;6.35;;;1.60;;
37201;SDS011;37799;52.390;6.136;2023-04-06T03:17:57;6.93;;;1.85;;
37201;SDS011;37799;52.390;6.136;2023-04-06T03:20:27;6.32;;;1.85;;
37201;SDS011;37799;52.390;6.136;2023-04-06T03:22:54;6.47;;;1.90;;
37201;SDS011;37799;52.390;6.136;2023-04-06T03:25:25;9.07;;;2.13;;
37201;SDS011;37799;52.390;6.136;2023-04-06T03:27:58;6.88;;;1.83;;
37201;SDS011;37799;52.390;6.136;2023-04-06T03:30:26;7.07;;;1.58;;
37201;SDS011;37799;52.390;6.136;2023-04-06T03:32:53;6.90;;;1.83;;
37201;SDS011;37799;52.390;6.136;2023-04-06T03:35:23;6.53;;;1.83;;
37201;SDS011;37799;52.390;6.136;2023-04-06T03:37:49;5.45;;;1.42;;
37201;SDS011;37799;52.390;6.136;2023-04-06T03:40:21;6.50;;;1.58;;
37201;SDS011;37799;52.390;6.136;2023-04-06T03:42:50;5.45;;;1.58;;
37201;SDS011;37799;52.390;6.136;2023-04-06T03:45:39;8.48;;;2.00;;
37201;SDS011;37799;52.390;6.136;2023-04-06T03:48:06;5.00;;;1.25;;
37201;SDS011;37799;52.390;6.136;2023-04-06T03:50:33;6.75;;;1.92;;
37201;SDS011;37799;52.390;6.136;2023-04-06T03:52:58;3.60;;;1.15;;
37201;SDS011;37799;52.390;6.136;2023-04-06T03:55:30;7.68;;;1.67;;
37201;SDS011;37799;52.390;6.136;2023-04-06T03:57:57;8.10;;;2.30;;
37201;SDS011;37799;52.390;6.136;2023-04-06T04:00:23;6.57;;;1.85;;
37201;SDS011;37799;52.390;6.136;2023-04-06T04:02:49;7.53;;;2.00;;
37201;SDS011;37799;52.390;6.136;2023-04-06T04:05:18;8.15;;;1.63;;
37201;SDS011;37799;52.390;6.136;2023-04-06T04:07:44;6.93;;;1.55;;
37201;SDS011;37799;52.390;6.136;2023-04-06T04:10:09;7.05;;;2.22;;
37201;SDS011;37799;52.390;6.136;2023-04-06T04:12:35;6.90;;;1.83;;
37201;SDS011;37799;52.390;6.136;2023-04-06T04:15:03;7.40;;;1.85;;
37201;SDS011;37799;52.390;6.136;2023-04-06T04:17:34;8.70;;;1.45;;
37201;SDS011;37799;52.390;6.136;2023-04-06T04:20:13;8.13;;;1.83;;
37201;SDS011;37799;52.390;6.136;2023-04-06T04:22:42;6.57;;;1.73;;
37201;SDS011;37799;52.390;6.136;2023-04-06T04:25:09;8.27;;;2.45;;
37201;SDS011;37799;52.390;6.136;2023-04-06T04:27:39;8.05;;;2.00;;
37201;SDS011;37799;52.390;6.136;2023-04-06T04:30:28;5.90;;;1.55;;
37201;SDS011;37799;52.390;6.136;2023-04-06T04:32:56;9.20;;;2.40;;
37201;SDS011;37799;52.390;6.136;2023-04-06T04:35:21;7.63;;;2.42;;
37201;SDS011;37799;52.390;6.136;2023-04-06T04:37:48;8.77;;;2.05;;
37201;SDS011;37799;52.390;6.136;2023-04-06T04:43:05;8.35;;;1.90;;
37201;SDS011;37799;52.390;6.136;2023-04-06T04:48:03;6.60;;;1.75;;
37201;SDS011;37799;52.390;6.136;2023-04-06T04:50:31;5.78;;;1.70;;
37201;SDS011;37799;52.390;6.136;2023-04-06T04:53:05;8.70;;;2.22;;
37201;SDS011;37799;52.390;6.136;2023-04-06T04:55:40;6.55;;;1.38;;
37201;SDS011;37799;52.390;6.136;2023-04-06T04:58:10;8.13;;;1.67;;
37201;SDS011;37799;52.390;6.136;2023-04-06T05:00:42;7.72;;;2.22;;
37201;SDS011;37799;52.390;6.136;2023-04-06T05:03:09;8.05;;;1.50;;
37201;SDS011;37799;52.390;6.136;2023-04-06T05:05:39;8.98;;;2.58;;
37201;SDS011;37799;52.390;6.136;2023-04-06T05:08:06;5.57;;;1.77;;
37201;SDS011;37799;52.390;6.136;2023-04-06T05:10:34;6.93;;;1.75;;
37201;SDS011;37799;52.390;6.136;2023-04-06T05:13:02;6.65;;;2.17;;
37201;SDS011;37799;52.390;6.136;2023-04-06T05:15:30;6.13;;;1.92;;
37201;SDS011;37799;52.390;6.136;2023-04-06T05:17:59;9.15;;;2.55;;
37201;SDS011;37799;52.390;6.136;2023-04-06T05:20:26;7.20;;;1.88;;
37201;SDS011;37799;52.390;6.136;2023-04-06T05:22:56;6.18;;;1.92;;
37201;SDS011;37799;52.390;6.136;2023-04-06T05:25:26;6.50;;;1.70;;
37201;SDS011;37799;52.390;6.136;2023-04-06T05:27:53;9.02;;;1.70;;
37201;SDS011;37799;52.390;6.136;2023-04-06T05:30:20;8.40;;;2.15;;
37201;SDS011;37799;52.390;6.136;2023-04-06T05:32:47;8.23;;;2.03;;
37201;SDS011;37799;52.390;6.136;2023-04-06T05:35:18;11.82;;;2.10;;
37201;SDS011;37799;52.390;6.136;2023-04-06T05:37:45;7.75;;;1.60;;
37201;SDS011;37799;52.390;6.136;2023-04-06T05:40:34;6.65;;;2.20;;
37201;SDS011;37799;52.390;6.136;2023-04-06T05:43:05;5.78;;;1.95;;
37201;SDS011;37799;52.390;6.136;2023-04-06T05:45:33;7.47;;;2.10;;
37201;SDS011;37799;52.390;6.136;2023-04-06T05:48:00;6.22;;;1.77;;
37201;SDS011;37799;52.390;6.136;2023-04-06T05:50:28;9.30;;;1.88;;
37201;SDS011;37799;52.390;6.136;2023-04-06T05:52:58;7.70;;;1.60;;
37201;SDS011;37799;52.390;6.136;2023-04-06T05:55:42;8.93;;;1.90;;
37201;SDS011;37799;52.390;6.136;2023-04-06T05:58:11;6.55;;;2.03;;
37201;SDS011;37799;52.390;6.136;2023-04-06T06:00:37;7.00;;;1.65;;
37201;SDS011;37799;52.390;6.136;2023-04-06T06:03:02;7.47;;;2.70;;
37201;SDS011;37799;52.390;6.136;2023-04-06T06:05:31;12.15;;;2.08;;
37201;SDS011;37799;52.390;6.136;2023-04-06T06:07:56;7.05;;;2.05;;
37201;SDS011;37799;52.390;6.136;2023-04-06T06:10:23;7.57;;;1.50;;
37201;SDS011;37799;52.390;6.136;2023-04-06T06:12:58;8.93;;;2.10;;
37201;SDS011;37799;52.390;6.136;2023-04-06T06:15:46;7.30;;;2.08;;
37201;SDS011;37799;52.390;6.136;2023-04-06T06:18:11;6.13;;;2.03;;
37201;SDS011;37799;52.390;6.136;2023-04-06T06:20:36;5.50;;;1.48;;
37201;SDS011;37799;52.390;6.136;2023-04-06T06:23:02;8.82;;;1.88;;
37201;SDS011;37799;52.390;6.136;2023-04-06T06:25:29;5.95;;;1.77;;
37201;SDS011;37799;52.390;6.136;2023-04-06T06:27:58;7.75;;;2.53;;
37201;SDS011;37799;52.390;6.136;2023-04-06T06:30:23;8.13;;;2.85;;
37201;SDS011;37799;52.390;6.136;2023-04-06T06:32:49;7.63;;;1.88;;
37201;SDS011;37799;52.390;6.136;2023-04-06T06:35:15;5.85;;;1.65;;
37201;SDS011;37799;52.390;6.136;2023-04-06T06:37:41;6.07;;;1.65;;
37201;SDS011;37799;52.390;6.136;2023-04-06T06:40:07;8.18;;;2.13;;
37201;SDS011;37799;52.390;6.136;2023-04-06T06:42:34;6.88;;;2.10;;
37201;SDS011;37799;52.390;6.136;2023-04-06T06:44:59;6.18;;;1.73;;
37201;SDS011;37799;52.390;6.136;2023-04-06T06:47:24;6.25;;;1.83;;
37201;SDS011;37799;52.390;6.136;2023-04-06T06:49:53;8.80;;;2.22;;
37201;SDS011;37799;52.390;6.136;2023-04-06T06:52:19;8.73;;;2.17;;
37201;SDS011;37799;52.390;6.136;2023-04-06T06:54:44;7.40;;;2.08;;
37201;SDS011;37799;52.390;6.136;2023-04-06T06:57:09;7.10;;;2.03;;
37201;SDS011;37799;52.390;6.136;2023-04-06T06:59:35;9.13;;;2.33;;
37201;SDS011;37799;52.390;6.136;2023-04-06T07:02:00;9.73;;;2.05;;
37201;SDS011;37799;52.390;6.136;2023-04-06T07:04:26;9.02;;;2.40;;
37201;SDS011;37799;52.390;6.136;2023-04-06T07:06:57;9.05;;;2.63;;
37201;SDS011;37799;52.390;6.136;2023-04-06T07:09:29;8.98;;;2.15;;
37201;SDS011;37799;52.390;6.136;2023-04-06T07:11:58;8.73;;;2.08;;
37201;SDS011;37799;52.390;6.136;2023-04-06T07:14:24;9.10;;;2.20;;
37201;SDS011;37799;52.390;6.136;2023-04-06T07:16:49;8.45;;;2.50;;
37201;SDS011;37799;52.390;6.136;2023-04-06T07:19:18;7.55;;;2.45;;
37201;SDS011;37799;52.390;6.136;2023-04-06T07:21:47;7.50;;;2.17;;
37201;SDS011;37799;52.390;6.136;2023-04-06T07:24:19;6.10;;;1.75;;
37201;SDS011;37799;52.390;6.136;2023-04-06T07:26:51;9.15;;;2.75;;
37201;SDS011;37799;52.390;6.136;2023-04-06T07:29:21;6.82;;;2.25;;
37201;SDS011;37799;52.390;6.136;2023-04-06T07:31:55;7.95;;;2.33;;
37201;SDS011;37799;52.390;6.136;2023-04-06T07:34:25;10.63;;;2.92;;
37201;SDS011;37799;52.390;6.136;2023-04-06T07:36:51;9.55;;;3.25;;
37201;SDS011;37799;52.390;6.136;2023-04-06T07:39:18;10.00;;;3.33;;
37201;SDS011;37799;52.390;6.136;2023-04-06T07:41:45;9.02;;;2.67;;
37201;SDS011;37799;52.390;6.136;2023-04-06T07:44:11;9.98;;;2.92;;
37201;SDS011;37799;52.390;6.136;2023-04-06T07:46:36;9.77;;;2.42;;
37201;SDS011;37799;52.390;6.136;2023-04-06T07:49:05;10.25;;;3.08;;
37201;SDS011;37799;52.390;6.136;2023-04-06T07:52:05;9.43;;;2.58;;
37201;SDS011;37799;52.390;6.136;2023-04-06T07:54:36;9.63;;;2.92;;
37201;SDS011;37799;52.390;6.136;2023-04-06T07:57:04;8.93;;;2.60;;
37201;SDS011;37799;52.390;6.136;2023-04-06T07:59:40;8.30;;;2.80;;
37201;SDS011;37799;52.390;6.136;2023-04-06T08:02:06;9.15;;;2.70;;
37201;SDS011;37799;52.390;6.136;2023-04-06T08:04:32;7.65;;;2.47;;
37201;SDS011;37799;52.390;6.136;2023-04-06T08:06:59;8.70;;;2.40;;
37201;SDS011;37799;52.390;6.136;2023-04-06T08:09:25;8.35;;;2.63;;
37201;SDS011;37799;52.390;6.136;2023-04-06T08:11:50;8.95;;;2.60;;
37201;SDS011;37799;52.390;6.136;2023-04-06T08:14:18;8.88;;;3.00;;
37201;SDS011;37799;52.390;6.136;2023-04-06T08:17:10;9.82;;;3.08;;
37201;SDS011;37799;52.390;6.136;2023-04-06T08:20:02;9.10;;;2.67;;
37201;SDS011;37799;52.390;6.136;2023-04-06T08:22:29;8.63;;;3.00;;
37201;SDS011;37799;52.390;6.136;2023-04-06T08:24:55;9.55;;;2.88;;
37201;SDS011;37799;52.390;6.136;2023-04-06T08:27:21;8.35;;;3.15;;
37201;SDS011;37799;52.390;6.136;2023-04-06T08:29:47;9.27;;;2.83;;
37201;SDS011;37799;52.390;6.136;2023-04-06T08:32:14;9.23;;;3.05;;
37201;SDS011;37799;52.390;6.136;2023-04-06T08:34:39;10.70;;;2.63;;
37201;SDS011;37799;52.390;6.136;2023-04-06T08:37:06;9.23;;;2.53;;
37201;SDS011;37799;52.390;6.136;2023-04-06T08:39:31;10.80;;;2.75;;
37201;SDS011;37799;52.390;6.136;2023-04-06T08:41:58;8.85;;;2.70;;
37201;SDS011;37799;52.390;6.136;2023-04-06T08:44:27;8.05;;;2.53;;
37201;SDS011;37799;52.390;6.136;2023-04-06T08:46:55;9.85;;;3.17;;
37201;SDS011;37799;52.390;6.136;2023-04-06T08:49:20;7.68;;;2.50;;
37201;SDS011;37799;52.390;6.136;2023-04-06T08:51:46;8.13;;;2.47;;
37201;SDS011;37799;52.390;6.136;2023-04-06T08:54:12;8.85;;;2.58;;
37201;SDS011;37799;52.390;6.136;2023-04-06T08:56:38;10.02;;;3.22;;
37201;SDS011;37799;52.390;6.136;2023-04-06T08:59:04;10.82;;;2.85;;
37201;SDS011;37799;52.390;6.136;2023-04-06T09:01:31;10.50;;;3.03;;
37201;SDS011;37799;52.390;6.136;2023-04-06T09:03:59;11.32;;;2.90;;
37201;SDS011;37799;52.390;6.136;2023-04-06T09:06:26;9.93;;;3.10;;
37201;SDS011;37799;52.390;6.136;2023-04-06T09:08:52;10.60;;;2.85;;
37201;SDS011;37799;52.390;6.136;2023-04-06T09:11:17;9.27;;;2.80;;
37201;SDS011;37799;52.390;6.136;2023-04-06T09:13:46;10.65;;;3.35;;
37201;SDS011;37799;52.390;6.136;2023-04-06T09:16:19;10.30;;;3.13;;
37201;SDS011;37799;52.390;6.136;2023-04-06T09:18:45;8.90;;;2.92;;
37201;SDS011;37799;52.390;6.136;2023-04-06T09:21:11;10.82;;;3.22;;
37201;SDS011;37799;52.390;6.136;2023-04-06T09:23:36;8.85;;;2.50;;
37201;SDS011;37799;52.390;6.136;2023-04-06T09:26:07;11.95;;;3.70;;
37201;SDS011;37799;52.390;6.136;2023-04-06T09:28:42;10.45;;;2.95;;
37201;SDS011;37799;52.390;6.136;2023-04-06T09:31:25;10.85;;;3.00;;
37201;SDS011;37799;52.390;6.136;2023-04-06T09:33:55;9.50;;;2.95;;
37201;SDS011;37799;52.390;6.136;2023-04-06T09:36:31;10.38;;;3.53;;
37201;SDS011;37799;52.390;6.136;2023-04-06T09:38:58;12.93;;;3.88;;
37201;SDS011;37799;52.390;6.136;2023-04-06T09:41:29;9.70;;;2.90;;
37201;SDS011;37799;52.390;6.136;2023-04-06T09:44:08;11.23;;;3.30;;
37201;SDS011;37799;52.390;6.136;2023-04-06T09:46:35;10.63;;;3.10;;
37201;SDS011;37799;52.390;6.136;2023-04-06T09:49:05;12.15;;;3.03;;
37201;SDS011;37799;52.390;6.136;2023-04-06T09:54:15;8.10;;;2.35;;
37201;SDS011;37799;52.390;6.136;2023-04-06T09:56:47;11.18;;;3.45;;
37201;SDS011;37799;52.390;6.136;2023-04-06T09:59:20;11.43;;;3.33;;
37201;SDS011;37799;52.390;6.136;2023-04-06T10:01:51;10.63;;;3.67;;
37201;SDS011;37799;52.390;6.136;2023-04-06T10:07:04;10.73;;;2.97;;
37201;SDS011;37799;52.390;6.136;2023-04-06T10:09:31;8.35;;;2.75;;
37201;SDS011;37799;52.390;6.136;2023-04-06T10:12:06;11.02;;;3.58;;
37201;SDS011;37799;52.390;6.136;2023-04-06T10:14:35;9.43;;;2.97;;
37201;SDS011;37799;52.390;6.136;2023-04-06T10:17:02;14.57;;;3.58;;
37201;SDS011;37799;52.390;6.136;2023-04-06T10:19:33;9.32;;;2.30;;
37201;SDS011;37799;52.390;6.136;2023-04-06T10:22:05;8.80;;;3.35;;
37201;SDS011;37799;52.390;6.136;2023-04-06T10:24:33;9.18;;;2.85;;
37201;SDS011;37799;52.390;6.136;2023-04-06T10:27:03;12.50;;;4.55;;
37201;SDS011;37799;52.390;6.136;2023-04-06T10:29:42;12.68;;;4.15;;
37201;SDS011;37799;52.390;6.136;2023-04-06T10:32:09;10.82;;;3.00;;
37201;SDS011;37799;52.390;6.136;2023-04-06T10:34:37;11.77;;;3.47;;
37201;SDS011;37799;52.390;6.136;2023-04-06T10:37:15;7.90;;;2.42;;
37201;SDS011;37799;52.390;6.136;2023-04-06T10:39:53;8.93;;;2.83;;
37201;SDS011;37799;52.390;6.136;2023-04-06T10:42:25;10.98;;;3.67;;
37201;SDS011;37799;52.390;6.136;2023-04-06T10:45:03;12.82;;;3.67;;
37201;SDS011;37799;52.390;6.136;2023-04-06T10:47:38;7.75;;;2.33;;
37201;SDS011;37799;52.390;6.136;2023-04-06T10:50:05;12.35;;;3.72;;
37201;SDS011;37799;52.390;6.136;2023-04-06T10:52:31;12.90;;;3.55;;
37201;SDS011;37799;52.390;6.136;2023-04-06T10:54:56;11.77;;;3.67;;
37201;SDS011;37799;52.390;6.136;2023-04-06T10:57:28;11.48;;;3.53;;
37201;SDS011;37799;52.390;6.136;2023-04-06T10:59:55;10.50;;;4.15;;
37201;SDS011;37799;52.390;6.136;2023-04-06T11:02:21;10.15;;;3.25;;
37201;SDS011;37799;52.390;6.136;2023-04-06T11:04:56;13.10;;;3.90;;
37201;SDS011;37799;52.390;6.136;2023-04-06T11:07:22;12.38;;;3.65;;
37201;SDS011;37799;52.390;6.136;2023-04-06T11:09:52;11.38;;;2.80;;
37201;SDS011;37799;52.390;6.136;2023-04-06T11:12:24;11.13;;;4.38;;
37201;SDS011;37799;52.390;6.136;2023-04-06T11:14:58;10.63;;;3.63;;
37201;SDS011;37799;52.390;6.136;2023-04-06T11:17:29;10.43;;;3.53;;
37201;SDS011;37799;52.390;6.136;2023-04-06T11:19:55;9.85;;;3.17;;
37201;SDS011;37799;52.390;6.136;2023-04-06T11:22:22;9.07;;;3.05;;
37201;SDS011;37799;52.390;6.136;2023-04-06T11:24:47;11.05;;;2.92;;
37201;SDS011;37799;52.390;6.136;2023-04-06T11:27:14;11.07;;;3.38;;
37201;SDS011;37799;52.390;6.136;2023-04-06T11:29:41;12.75;;;3.58;;
37201;SDS011;37799;52.390;6.136;2023-04-06T11:32:06;10.75;;;3.03;;
37201;SDS011;37799;52.390;6.136;2023-04-06T11:34:36;13.43;;;3.38;;
37201;SDS011;37799;52.390;6.136;2023-04-06T11:37:04;13.50;;;4.03;;
37201;SDS011;37799;52.390;6.136;2023-04-06T11:39:37;11.25;;;3.10;;
37201;SDS011;37799;52.390;6.136;2023-04-06T11:42:08;13.35;;;3.80;;
37201;SDS011;37799;52.390;6.136;2023-04-06T11:44:35;12.15;;;3.50;;
37201;SDS011;37799;52.390;6.136;2023-04-06T11:47:04;13.25;;;3.55;;
37201;SDS011;37799;52.390;6.136;2023-04-06T11:49:31;9.57;;;3.25;;
37201;SDS011;37799;52.390;6.136;2023-04-06T11:51:58;9.80;;;2.97;;
37201;SDS011;37799;52.390;6.136;2023-04-06T11:54:31;10.30;;;3.40;;
37201;SDS011;37799;52.390;6.136;2023-04-06T11:57:01;12.45;;;3.33;;
37201;SDS011;37799;52.390;6.136;2023-04-06T11:59:28;8.32;;;2.63;;
37201;SDS011;37799;52.390;6.136;2023-04-06T12:01:53;9.05;;;2.60;;
37201;SDS011;37799;52.390;6.136;2023-04-06T12:04:19;9.23;;;2.65;;
37201;SDS011;37799;52.390;6.136;2023-04-06T12:06:45;8.90;;;2.95;;
37201;SDS011;37799;52.390;6.136;2023-04-06T12:09:10;8.40;;;2.50;;
37201;SDS011;37799;52.390;6.136;2023-04-06T12:11:36;6.80;;;2.08;;
37201;SDS011;37799;52.390;6.136;2023-04-06T12:14:01;9.50;;;1.95;;
37201;SDS011;37799;52.390;6.136;2023-04-06T12:16:29;6.97;;;1.90;;
37201;SDS011;37799;52.390;6.136;2023-04-06T12:18:57;7.40;;;2.00;;
37201;SDS011;37799;52.390;6.136;2023-04-06T12:21:22;7.70;;;2.20;;
37201;SDS011;37799;52.390;6.136;2023-04-06T12:23:48;7.43;;;1.92;;
37201;SDS011;37799;52.390;6.136;2023-04-06T12:26:13;6.72;;;1.48;;
37201;SDS011;37799;52.390;6.136;2023-04-06T12:28:39;5.35;;;1.75;;
37201;SDS011;37799;52.390;6.136;2023-04-06T12:31:04;8.05;;;2.58;;
37201;SDS011;37799;52.390;6.136;2023-04-06T12:33:30;7.80;;;1.95;;
37201;SDS011;37799;52.390;6.136;2023-04-06T12:35:55;10.45;;;2.75;;
37201;SDS011;37799;52.390;6.136;2023-04-06T12:38:21;7.03;;;1.88;;
37201;SDS011;37799;52.390;6.136;2023-04-06T12:40:46;8.15;;;2.13;;
37201;SDS011;37799;52.390;6.136;2023-04-06T12:43:12;9.45;;;2.90;;
37201;SDS011;37799;52.390;6.136;2023-04-06T12:45:38;8.18;;;3.30;;
37201;SDS011;37799;52.390;6.136;2023-04-06T12:48:05;9.57;;;2.72;;
37201;SDS011;37799;52.390;6.136;2023-04-06T12:50:31;9.57;;;2.88;;
37201;SDS011;37799;52.390;6.136;2023-04-06T12:52:56;9.82;;;3.10;;
37201;SDS011;37799;52.390;6.136;2023-04-06T12:55:21;9.50;;;3.08;;
37201;SDS011;37799;52.390;6.136;2023-04-06T12:57:47;9.27;;;3.55;;
37201;SDS011;37799;52.390;6.136;2023-04-06T13:00:12;8.82;;;3.22;;
37201;SDS011;37799;52.390;6.136;2023-04-06T13:02:39;11.32;;;3.60;;
37201;SDS011;37799;52.390;6.136;2023-04-06T13:05:05;8.48;;;2.17;;
37201;SDS011;37799;52.390;6.136;2023-04-06T13:07:30;11.07;;;2.50;;
37201;SDS011;37799;52.390;6.136;2023-04-06T13:09:56;8.65;;;2.60;;
37201;SDS011;37799;52.390;6.136;2023-04-06T13:12:23;10.32;;;3.83;;
37201;SDS011;37799;52.390;6.136;2023-04-06T13:14:48;9.55;;;2.85;;
37201;SDS011;37799;52.390;6.136;2023-04-06T13:17:16;9.60;;;2.92;;
37201;SDS011;37799;52.390;6.136;2023-04-06T13:19:42;9.85;;;3.25;;
37201;SDS011;37799;52.390;6.136;2023-04-06T13:22:07;8.52;;;2.20;;
37201;SDS011;37799;52.390;6.136;2023-04-06T13:24:33;7.90;;;2.42;;
37201;SDS011;37799;52.390;6.136;2023-04-06T13:26:59;10.55;;;3.00;;
37201;SDS011;37799;52.390;6.136;2023-04-06T13:29:25;11.25;;;3.30;;
37201;SDS011;37799;52.390;6.136;2023-04-06T13:31:51;8.50;;;2.60;;
37201;SDS011;37799;52.390;6.136;2023-04-06T13:34:16;10.02;;;2.35;;
37201;SDS011;37799;52.390;6.136;2023-04-06T13:36:41;8.10;;;2.25;;
37201;SDS011;37799;52.390;6.136;2023-04-06T13:39:07;7.72;;;2.53;;
37201;SDS011;37799;52.390;6.136;2023-04-06T13:41:33;8.30;;;2.53;;
37201;SDS011;37799;52.390;6.136;2023-04-06T13:43:58;8.13;;;2.42;;
37201;SDS011;37799;52.390;6.136;2023-04-06T13:46:24;10.25;;;2.92;;
37201;SDS011;37799;52.390;6.136;2023-04-06T13:48:50;9.48;;;2.45;;
37201;SDS011;37799;52.390;6.136;2023-04-06T13:51:15;6.45;;;2.03;;
37201;SDS011;37799;52.390;6.136;2023-04-06T13:53:41;9.68;;;2.95;;
37201;SDS011;37799;52.390;6.136;2023-04-06T13:56:07;10.13;;;2.28;;
37201;SDS011;37799;52.390;6.136;2023-04-06T13:58:32;8.05;;;2.35;;
37201;SDS011;37799;52.390;6.136;2023-04-06T14:11:42;6.50;;;1.25;;
37201;SDS011;37799;52.390;6.136;2023-04-06T14:14:07;6.95;;;1.52;;
37201;SDS011;37799;52.390;6.136;2023-04-06T14:16:32;6.10;;;1.88;;
37201;SDS011;37799;52.390;6.136;2023-04-06T14:18:58;6.63;;;1.90;;
37201;SDS011;37799;52.390;6.136;2023-04-06T14:21:23;5.63;;;1.40;;
37201;SDS011;37799;52.390;6.136;2023-04-06T14:23:49;5.95;;;1.27;;
37201;SDS011;37799;52.390;6.136;2023-04-06T14:26:15;10.38;;;1.63;;
37201;SDS011;37799;52.390;6.136;2023-04-06T14:28:41;6.53;;;1.70;;
37201;SDS011;37799;52.390;6.136;2023-04-06T14:31:11;3.88;;;0.95;;
37201;SDS011;37799;52.390;6.136;2023-04-06T14:33:38;5.90;;;1.58;;
37201;SDS011;37799;52.390;6.136;2023-04-06T14:36:03;4.78;;;1.15;;
37201;SDS011;37799;52.390;6.136;2023-04-06T14:38:30;5.32;;;1.20;;
37201;SDS011;37799;52.390;6.136;2023-04-06T14:40:56;5.10;;;1.17;;
37201;SDS011;37799;52.390;6.136;2023-04-06T14:43:21;4.95;;;1.02;;
37201;SDS011;37799;52.390;6.136;2023-04-06T14:45:47;7.53;;;1.73;;
37201;SDS011;37799;52.390;6.136;2023-04-06T14:48:12;4.97;;;1.20;;
37201;SDS011;37799;52.390;6.136;2023-04-06T14:50:39;6.85;;;1.63;;
37201;SDS011;37799;52.390;6.136;2023-04-06T14:53:25;6.32;;;1.40;;
37201;SDS011;37799;52.390;6.136;2023-04-06T14:55:51;8.68;;;1.98;;
37201;SDS011;37799;52.390;6.136;2023-04-06T14:58:19;4.68;;;1.35;;
37201;SDS011;37799;52.390;6.136;2023-04-06T15:00:46;5.63;;;1.38;;
37201;SDS011;37799;52.390;6.136;2023-04-06T15:03:12;5.82;;;1.25;;
37201;SDS011;37799;52.390;6.136;2023-04-06T15:05:39;5.20;;;1.48;;
37201;SDS011;37799;52.390;6.136;2023-04-06T15:08:05;5.93;;;1.60;;
37201;SDS011;37799;52.390;6.136;2023-04-06T15:10:31;6.47;;;1.65;;
37201;SDS011;37799;52.390;6.136;2023-04-06T15:12:57;4.95;;;1.38;;
37201;SDS011;37799;52.390;6.136;2023-04-06T15:15:22;5.40;;;1.60;;
37201;SDS011;37799;52.390;6.136;2023-04-06T15:17:48;5.93;;;1.35;;
37201;SDS011;37799;52.390;6.136;2023-04-06T15:20:13;6.18;;;1.70;;